Terminal Aerodrome Forecast
Issued by NWS

Home | Current Version | Previous Version | Text Only | Print | Product List | Glossary On
Versions: 1 2 3 4 5 6 7 8 9 10 11 12 13 14 15 16 17 18 19 20 21 22 23 24 25 26 27 28 29 30 31 32 33 34 35 36 37 38 39 40 41 42 43 44 45 46 47
000
FTUS44 KMOB 221200 AAA
TAFBFM
TAF AMD
KBFM 221237Z 2213/2312 08005KT P6SM -RA VCSH OVC005
      TEMPO 2213/2217 1/2SM RA FG BKN001
     FM221800 14005KT 6SM -RA VCSH OVC010
     FM230000 17006KT 5SM BR VCSH OVC015
     FM230600 19004KT 1 1/2SM BR OVC004 PROB30 2306/2312 1 1/2SM
      TSRA BR BKN004CB=

USA.gov is the U.S. government's official web portal to all federal, state and local government web resources and services.